Time;durP1;ratioP1;P1;durP2;ratioP2;P2;SDS_P1;SDS_P2;PMS_P1;PMS_P2;Temp;Humidity;BMP_temperature;BMP_pressure;BME280_temperature;BME280_humidity;BME280_pressure;Samples;Min_cycle;Max_cycle;Signal;HPM_P1;HPM_P2
2022/09/20 00:00:27;;;;;;;;;3.25;3.25;;;;;11.47;64.13;102276.03;5012212;28;51590;-74
2022/09/20 00:02:52;;;;;;;;;2.25;2.00;;;;;11.43;64.67;102289.88;5012406;28;49618;-80
2022/09/20 00:05:18;;;;;;;;;2.00;1.25;;;;;10.80;64.58;102177.69;5012630;28;49912;-75
2022/09/20 00:07:44;;;;;;;;;3.25;3.25;;;;;11.26;64.79;102255.84;5012254;28;49589;-80
2022/09/20 00:10:10;;;;;;;;;3.75;3.00;;;;;11.00;64.57;102207.44;5011970;28;50997;-75
2022/09/20 00:12:36;;;;;;;;;2.75;1.50;;;;;11.37;64.78;102273.84;5012230;28;49866;-77
2022/09/20 00:15:02;;;;;;;;;3.00;2.75;;;;;11.35;64.79;102287.78;5012371;28;49685;-77
2022/09/20 00:17:28;;;;;;;;;2.50;2.50;;;;;11.13;65.19;102257.06;5012464;28;49755;-81
2022/09/20 00:19:53;;;;;;;;;1.75;1.00;;;;;11.22;65.11;102273.22;5011755;28;49756;-79
2022/09/20 00:22:19;;;;;;;;;4.25;1.25;;;;;11.21;65.20;102267.91;5012031;28;49862;-74
2022/09/20 00:24:44;;;;;;;;;2.50;2.00;;;;;11.25;65.23;102272.44;4993804;28;49742;-79
2022/09/20 00:27:10;;;;;;;;;2.25;2.25;;;;;11.16;65.10;102267.69;5011768;28;49671;-79
2022/09/20 00:29:36;;;;;;;;;2.00;2.00;;;;;10.77;64.99;102224.84;5011829;28;49764;-78
2022/09/20 00:32:01;;;;;;;;;3.75;3.50;;;;;11.11;65.59;102266.63;5011989;28;49822;-78
2022/09/20 00:37:11;;;;;;;;;5.00;2.50;;;;;11.09;65.83;102269.16;5006245;28;49772;-77
2022/09/20 00:39:36;;;;;;;;;1.50;1.00;;;;;11.08;65.84;102269.09;5012002;28;49766;-80
2022/09/20 00:42:02;;;;;;;;;3.75;2.50;;;;;10.73;65.81;102228.19;5011017;28;49743;-78
2022/09/20 00:44:52;;;;;;;;;2.25;2.25;;;;;10.76;65.78;102220.44;5011995;28;50091;-79
2022/09/20 00:47:23;;;;;;;;;3.50;3.50;;;;;11.01;65.72;102272.31;5011928;28;49934;-76
2022/09/20 00:49:54;;;;;;;;;3.00;3.00;;;;;10.75;65.97;102248.44;5011596;28;50812;-79
2022/09/20 00:52:19;;;;;;;;;3.00;3.00;;;;;10.79;65.88;102236.31;5011454;28;49797;-80
2022/09/20 00:54:45;;;;;;;;;4.25;3.00;;;;;10.70;66.41;102262.19;5011673;28;49979;-78
2022/09/20 00:57:11;;;;;;;;;4.00;3.75;;;;;10.12;66.53;102123.06;5012022;28;49723;-76
2022/09/20 00:59:40;;;;;;;;;3.75;3.00;;;;;10.82;66.64;102258.38;4993563;28;50709;-76
2022/09/20 01:02:12;;;;;;;;;4.75;2.75;;;;;10.85;66.83;102269.00;5010259;28;49996;-76
2022/09/20 01:04:41;;;;;;;;;2.00;2.00;;;;;10.80;66.84;102273.16;5011455;28;49769;-82
2022/09/20 01:07:09;;;;;;;;;2.00;2.00;;;;;10.70;66.93;102249.03;5011685;28;49865;-77
2022/09/20 01:09:35;;;;;;;;;2.00;1.25;;;;;10.39;66.56;102236.28;5011310;28;49704;-77
2022/09/20 01:12:05;;;;;;;;;4.00;3.00;;;;;10.78;66.94;102268.66;5011291;28;50108;-80
2022/09/20 01:14:32;;;;;;;;;2.50;2.00;;;;;10.76;66.98;102287.00;5011494;28;49959;-80
2022/09/20 01:17:03;;;;;;;;;2.50;1.50;;;;;10.65;67.33;102259.38;5011345;28;49926;-79
2022/09/20 01:19:31;;;;;;;;;7.75;2.25;;;;;10.72;67.10;102258.81;5010968;28;50476;-79
2022/09/20 01:21:56;;;;;;;;;2.00;2.00;;;;;10.21;67.34;102196.94;5011185;28;49786;-74
2022/09/20 01:24:37;;;;;;;;;2.50;2.50;;;;;10.65;67.72;102256.75;5011216;28;49797;-78
2022/09/20 01:27:21;;;;;;;;;3.75;2.00;;;;;10.62;67.45;102256.63;5011044;28;49859;-78
2022/09/20 01:29:50;;;;;;;;;6.00;4.00;;;;;10.58;67.48;102252.03;5011032;28;50889;-75
2022/09/20 01:32:21;;;;;;;;;2.00;2.00;;;;;10.55;68.54;102257.16;5009981;28;49723;-76
2022/09/20 01:34:52;;;;;;;;;3.00;3.00;;;;;10.25;67.97;102202.47;5010874;28;49809;-76
2022/09/20 01:37:27;;;;;;;;;3.50;2.00;;;;;10.04;67.73;102168.25;5011230;28;49894;-76
2022/09/20 01:40:10;;;;;;;;;2.25;2.25;;;;;10.29;67.73;102214.88;5010751;28;50098;-75
2022/09/20 01:42:37;;;;;;;;;3.00;3.00;;;;;10.37;67.63;102219.56;5010837;28;49589;-79
2022/09/20 01:45:16;;;;;;;;;2.25;2.25;;;;;10.47;68.07;102250.66;5011154;28;50006;-75
2022/09/20 01:48:00;;;;;;;;;5.00;3.50;;;;;10.45;68.63;102254.97;5010893;28;50054;-75
2022/09/20 01:50:47;;;;;;;;;1.50;1.50;;;;;10.41;68.78;102258.25;5010207;28;50014;-76
2022/09/20 01:53:24;;;;;;;;;4.75;3.50;;;;;10.41;68.87;102259.16;5010752;28;49805;-76
2022/09/20 01:56:10;;;;;;;;;5.50;3.25;;;;;10.41;69.22;102264.41;5010483;28;49913;-79
2022/09/20 01:58:41;;;;;;;;;3.00;3.00;;;;;10.40;69.19;102262.59;5005003;28;49533;-79
2022/09/20 02:01:21;;;;;;;;;3.75;3.75;;;;;10.39;68.50;102252.94;5010430;28;50777;-79
2022/09/20 02:04:04;;;;;;;;;1.00;1.00;;;;;10.39;68.77;102255.56;5010939;28;50045;-76
2022/09/20 02:07:00;;;;;;;;;1.00;1.00;;;;;10.39;68.63;102273.03;5010902;28;49638;-75
2022/09/20 02:09:35;;;;;;;;;3.75;3.75;;;;;10.35;68.71;102264.16;5006812;28;49936;-76
2022/09/20 02:12:24;;;;;;;;;3.00;3.00;;;;;10.18;68.89;102242.34;5010076;28;49651;-79
2022/09/20 02:15:07;;;;;;;;;4.00;2.75;;;;;10.07;69.05;102219.94;5010406;28;49634;-79
2022/09/20 02:17:35;;;;;;;;;1.50;1.00;;;;;10.29;69.13;102251.63;5010448;28;49830;-80
2022/09/20 02:20:17;;;;;;;;;3.25;3.00;;;;;10.26;69.02;102258.47;4992940;28;49755;-77
2022/09/20 02:23:10;;;;;;;;;5.00;3.00;;;;;10.25;68.86;102257.56;5010487;28;50018;-78
2022/09/20 02:26:02;;;;;;;;;3.00;2.25;;;;;10.10;69.25;102230.56;5010336;28;49921;-80
2022/09/20 02:28:43;;;;;;;;;4.25;3.00;;;;;10.22;69.42;102253.88;4969878;28;50345;-80
2022/09/20 02:31:21;;;;;;;;;3.25;2.25;;;;;10.19;69.61;102262.50;5009180;28;49916;-80
2022/09/20 02:34:21;;;;;;;;;1.00;1.00;;;;;10.17;69.58;102271.13;5009940;28;50579;-78
2022/09/20 02:37:26;;;;;;;;;2.00;2.00;;;;;10.15;69.43;102254.44;5010285;28;50098;-79
2022/09/20 02:40:00;;;;;;;;;6.00;2.00;;;;;10.13;69.58;102256.94;5010234;28;50186;-80
2022/09/20 02:42:39;;;;;;;;;2.75;2.75;;;;;10.10;69.71;102258.53;5010482;28;49953;-79
2022/09/20 02:45:23;;;;;;;;;1.25;1.25;;;;;10.14;69.89;102255.25;5013499;28;50220;-79
2022/09/20 02:47:50;;;;;;;;;2.00;2.00;;;;;10.06;69.72;102273.25;5013576;28;49997;-78
2022/09/20 02:50:27;;;;;;;;;2.50;2.25;;;;;10.12;69.52;102256.88;5013393;28;49732;-80
2022/09/20 02:53:04;;;;;;;;;2.50;1.00;;;;;10.10;69.99;102256.81;5013315;28;49743;-78
2022/09/20 02:56:07;;;;;;;;;5.25;3.25;;;;;10.07;69.97;102256.69;5013008;28;50727;-81
2022/09/20 02:58:54;;;;;;;;;3.25;2.50;;;;;10.05;69.45;102260.97;5013552;28;49739;-79
2022/09/20 03:01:44;;;;;;;;;4.00;2.00;;;;;10.05;69.93;102268.84;5012685;28;49844;-80
2022/09/20 03:04:25;;;;;;;;;3.50;2.75;;;;;10.02;69.75;102261.69;5013064;28;49857;-81
2022/09/20 03:07:08;;;;;;;;;1.00;1.00;;;;;10.00;69.65;102254.59;5007963;28;49785;-80
2022/09/20 03:09:48;;;;;;;;;1.00;1.00;;;;;10.00;69.81;102255.50;5012776;28;49636;-73
2022/09/20 03:12:42;;;;;;;;;3.00;2.00;;;;;9.94;70.12;102243.81;4994646;28;49936;-79
2022/09/20 03:15:41;;;;;;;;;2.00;2.00;;;;;9.97;70.21;102255.34;5013446;28;49645;-80
2022/09/20 03:18:16;;;;;;;;;2.00;2.00;;;;;9.94;70.44;102260.47;5013323;28;50845;-73
2022/09/20 03:20:53;;;;;;;;;4.00;4.00;;;;;9.93;70.18;102253.41;5013554;28;49853;-72
2022/09/20 03:23:48;;;;;;;;;1.75;1.75;;;;;9.79;70.17;102240.47;5013189;28;49815;-73
2022/09/20 03:26:29;;;;;;;;;3.75;2.00;;;;;9.89;70.61;102256.72;5012727;28;50144;-78
2022/09/20 03:29:04;;;;;;;;;4.00;3.00;;;;;9.74;70.52;102238.50;5012736;28;49715;-79
2022/09/20 03:32:07;;;;;;;;;2.00;2.00;;;;;9.86;70.72;102258.31;4994757;28;49767;-76
2022/09/20 03:34:54;;;;;;;;;5.00;2.75;;;;;9.81;70.23;102249.31;5012317;28;50012;-73
2022/09/20 03:37:34;;;;;;;;;3.75;2.00;;;;;9.60;71.25;102222.97;5013273;28;49722;-79
2022/09/20 03:40:22;;;;;;;;;3.50;3.50;;;;;9.67;71.04;102235.56;5011797;28;50644;-78
2022/09/20 03:42:51;;;;;;;;;1.00;1.00;;;;;9.79;71.37;102258.84;5005941;28;50219;-78
2022/09/20 03:45:19;;;;;;;;;2.00;2.00;;;;;9.79;71.36;102257.09;5001040;28;50040;-76
2022/09/20 03:48:22;;;;;;;;;3.00;3.00;;;;;9.76;71.70;102256.97;5007009;28;50025;-80
2022/09/20 03:51:00;;;;;;;;;1.75;1.75;;;;;9.74;71.39;102253.34;5011517;28;50750;-76
2022/09/20 03:53:45;;;;;;;;;2.00;2.00;;;;;9.72;72.13;102258.53;5012064;28;49666;-77
2022/09/20 03:56:29;;;;;;;;;3.00;3.00;;;;;9.71;71.50;102261.09;5010986;28;49786;-74
2022/09/20 03:59:17;;;;;;;;;1.50;1.25;;;;;9.37;71.99;102208.75;5012748;28;49514;-75
2022/09/20 04:02:28;;;;;;;;;3.00;3.00;;;;;9.66;71.46;102254.75;5005724;28;49680;-77
2022/09/20 04:04:59;;;;;;;;;3.00;3.00;;;;;9.67;72.27;102261.78;5002310;28;49797;-79
2022/09/20 04:07:57;;;;;;;;;4.00;4.00;;;;;9.34;71.97;102204.25;5012402;28;49939;-80
2022/09/20 04:10:24;;;;;;;;;2.75;2.75;;;;;9.62;71.73;102250.16;5012156;28;49826;-79
2022/09/20 04:13:16;;;;;;;;;3.00;3.00;;;;;9.61;72.25;102257.13;5011496;28;50446;-73
2022/09/20 04:16:20;;;;;;;;;2.00;2.00;;;;;9.59;72.75;102260.50;5012153;28;49839;-73
2022/09/20 04:19:07;;;;;;;;;11.25;5.00;;;;;9.59;73.05;102263.13;4989899;28;49825;-73
2022/09/20 04:21:40;;;;;;;;;7.25;5.00;;;;;9.39;72.65;102236.84;5010384;28;49769;-77
2022/09/20 04:24:32;;;;;;;;;2.75;2.75;;;;;9.55;72.85;102261.16;5007611;28;50041;-79
2022/09/20 04:27:09;;;;;;;;;4.00;4.00;;;;;8.79;72.72;102136.06;5011945;28;49800;-75
2022/09/20 04:29:51;;;;;;;;;3.50;3.00;;;;;9.34;73.01;102243.56;5011885;28;49843;-80
2022/09/20 04:32:40;;;;;;;;;3.25;3.25;;;;;9.33;72.74;102243.50;5010923;28;49938;-76
2022/09/20 04:38:31;;;;;;;;;5.75;2.75;;;;;9.42;73.33;102270.16;4986854;28;49860;-79
2022/09/20 04:41:34;;;;;;;;;5.00;5.00;;;;;9.47;73.20;102284.41;5017046;28;49743;-74
2022/09/20 04:44:10;;;;;;;;;5.00;3.00;;;;;9.43;73.75;102282.44;5010948;28;49621;-79
2022/09/20 04:46:48;;;;;;;;;7.00;4.00;;;;;9.42;73.07;102284.16;5009568;28;50658;-75
2022/09/20 04:49:25;;;;;;;;;6.00;5.00;;;;;9.37;73.86;102279.53;5009734;28;49772;-77
2022/09/20 04:52:06;;;;;;;;;6.00;3.00;;;;;9.35;72.54;102284.66;5011460;28;49549;-79
2022/09/20 04:55:11;;;;;;;;;3.00;3.00;;;;;9.35;72.96;102281.16;5010275;28;49827;-76
2022/09/20 04:57:54;;;;;;;;;2.50;2.50;;;;;9.36;73.38;102281.25;5004238;28;50785;-77
2022/09/20 05:00:23;;;;;;;;;3.00;2.00;;;;;9.36;72.37;102282.94;5010470;28;49773;-80
2022/09/20 05:02:57;;;;;;;;;4.75;3.00;;;;;9.37;72.62;102277.81;5011250;28;49821;-75
2022/09/20 05:05:42;;;;;;;;;4.00;1.75;;;;;9.44;72.48;102273.75;5010214;28;49778;-75
2022/09/20 05:08:16;;;;;;;;;3.00;1.75;;;;;9.32;72.60;102241.69;5010316;28;49979;-76
2022/09/20 05:11:08;;;;;;;;;2.25;2.25;;;;;9.61;72.56;102279.81;5003005;28;49676;-77
2022/09/20 05:13:52;;;;;;;;;5.25;5.25;;;;;9.71;71.61;102282.06;5010830;28;49771;-76
2022/09/20 05:16:31;;;;;;;;;2.00;2.00;;;;;9.80;71.28;102279.88;5010492;28;49783;-80
2022/09/20 05:19:21;;;;;;;;;2.75;2.75;;;;;9.87;70.84;102271.50;5011836;28;50017;-74
2022/09/20 05:21:49;;;;;;;;;6.00;4.25;;;;;9.96;71.55;102265.78;5010337;28;49820;-74
2022/09/20 05:24:20;;;;;;;;;3.00;2.75;;;;;10.05;71.39;102266.22;5013767;28;49762;-77
2022/09/20 05:27:05;;;;;;;;;4.00;3.00;;;;;10.13;70.56;102271.81;5010990;28;49889;-76
2022/09/20 05:29:58;;;;;;;;;6.50;4.25;;;;;10.19;70.59;102267.75;5010774;28;50580;-78
2022/09/20 05:32:35;;;;;;;;;6.00;3.25;;;;;10.25;70.80;102265.44;5010574;28;49785;-74
2022/09/20 05:35:17;;;;;;;;;3.00;3.00;;;;;10.31;70.23;102265.72;5011103;28;49922;-73
2022/09/20 05:37:55;;;;;;;;;3.25;3.25;;;;;10.26;70.61;102243.63;5011337;28;49833;-74
2022/09/20 05:40:47;;;;;;;;;4.25;4.25;;;;;10.45;70.33;102262.84;5010676;28;49810;-76
2022/09/20 05:43:25;;;;;;;;;3.00;3.00;;;;;10.25;70.43;102244.44;5010173;28;49875;-80
2022/09/20 05:46:22;;;;;;;;;3.75;3.75;;;;;10.38;70.73;102272.16;5010975;28;49911;-81
2022/09/20 05:49:09;;;;;;;;;3.50;3.50;;;;;10.45;70.88;102278.59;5011135;28;49594;-75
2022/09/20 05:51:56;;;;;;;;;10.25;8.50;;;;;10.17;71.11;102237.91;5010736;28;49869;-74
2022/09/20 05:54:56;;;;;;;;;6.25;4.50;;;;;10.28;70.92;102249.81;5010573;28;49811;-71
2022/09/20 05:58:02;;;;;;;;;4.00;4.00;;;;;10.55;71.31;102292.19;5010985;28;49608;-71
2022/09/20 06:00:56;;;;;;;;;5.00;4.00;;;;;10.60;70.97;102290.66;5011204;28;50132;-71
2022/09/20 06:03:39;;;;;;;;;4.25;3.25;;;;;10.51;70.86;102266.59;5010511;28;50576;-71
2022/09/20 06:06:20;;;;;;;;;6.00;3.50;;;;;10.52;70.94;102260.56;5010617;28;49753;-75
2022/09/20 06:09:01;;;;;;;;;9.00;7.00;;;;;10.65;70.91;102274.22;5010310;28;49833;-75
2022/09/20 06:11:50;;;;;;;;;8.00;7.00;;;;;10.80;71.10;102288.03;5010298;28;50070;-74
2022/09/20 06:14:38;;;;;;;;;7.50;6.75;;;;;10.87;70.89;102288.34;5010452;28;50441;-76
2022/09/20 06:17:26;;;;;;;;;4.25;4.25;;;;;10.95;70.78;102287.81;5010581;28;49992;-78
2022/09/20 06:20:09;;;;;;;;;7.50;7.50;;;;;11.08;70.31;102298.00;5006717;28;49762;-77
2022/09/20 06:22:48;;;;;;;;;8.00;7.00;;;;;9.98;69.93;102122.47;4992758;28;49762;-79
2022/09/20 06:25:29;;;;;;;;;8.00;7.75;;;;;11.17;69.04;102324.69;5009891;28;49735;-76
2022/09/20 06:28:05;;;;;;;;;6.25;6.25;;;;;11.16;68.72;102329.03;5010451;28;49807;-77
2022/09/20 06:30:39;;;;;;;;;4.75;4.75;;;;;10.73;68.67;102264.97;5005383;28;49963;-77
2022/09/20 06:33:05;;;;;;;;;8.25;8.25;;;;;11.09;69.13;102320.81;5010586;28;50088;-75
2022/09/20 06:35:38;;;;;;;;;3.25;3.00;;;;;10.85;68.80;102284.78;5009892;28;49981;-75
2022/09/20 06:41:27;;;;;;;;;6.00;3.75;;;;;9.98;68.07;102149.59;5010003;28;49815;-75
2022/09/20 06:44:02;;;;;;;;;4.00;4.00;;;;;11.18;68.06;102322.13;5009987;28;49788;-79
2022/09/20 06:46:34;;;;;;;;;6.75;6.50;;;;;11.10;68.53;102320.91;5009787;28;50069;-79
2022/09/20 06:49:01;;;;;;;;;6.00;4.00;;;;;10.13;67.56;102153.72;5010013;28;50085;-79
2022/09/20 06:51:32;;;;;;;;;3.75;3.75;;;;;11.05;67.89;102274.22;5010220;28;49620;-76
2022/09/20 06:53:58;;;;;;;;;8.00;5.25;;;;;10.99;67.33;102252.94;5010236;28;50040;-77
2022/09/20 06:56:27;;;;;;;;;14.75;7.50;;;;;11.39;67.43;102326.53;5009512;28;49671;-79
2022/09/20 06:58:53;;;;;;;;;6.00;4.50;;;;;11.08;67.67;102274.34;5010329;28;49910;-80
2022/09/20 07:01:19;;;;;;;;;5.00;4.00;;;;;11.47;66.99;102331.25;5012318;28;49618;-76
2022/09/20 07:03:45;;;;;;;;;3.00;2.00;;;;;10.57;66.88;102167.09;5010289;28;49863;-76
2022/09/20 07:06:11;;;;;;;;;5.25;5.25;;;;;11.43;66.94;102304.78;5011810;28;50707;-75
2022/09/20 07:08:36;;;;;;;;;7.00;7.00;;;;;11.37;67.03;102320.28;5013798;28;49948;-79
2022/09/20 07:11:09;;;;;;;;;4.00;4.00;;;;;11.55;66.72;102328.03;5012511;28;49890;-76
2022/09/20 07:13:35;;;;;;;;;4.50;4.50;;;;;11.01;67.00;102254.81;5012981;28;49960;-78
2022/09/20 07:16:03;;;;;;;;;5.00;5.00;;;;;11.18;67.12;102245.00;5010037;28;50766;-79
2022/09/20 07:18:29;;;;;;;;;6.75;5.75;;;;;11.10;67.24;102226.31;5009583;28;49877;-78
2022/09/20 07:20:57;;;;;;;;;8.00;5.75;;;;;10.73;67.02;102167.78;5009661;28;49807;-75
2022/09/20 07:23:24;;;;;;;;;4.00;3.50;;;;;11.52;66.95;102293.75;5009709;28;49714;-77
2022/09/20 07:25:50;;;;;;;;;3.75;3.75;;;;;11.88;66.86;102336.47;4991035;28;50124;-76
2022/09/20 07:28:15;;;;;;;;;7.75;6.75;;;;;11.94;66.54;102336.69;4991694;28;49625;-78
2022/09/20 07:30:41;;;;;;;;;8.00;6.25;;;;;12.00;66.42;102332.59;5011926;28;49995;-79
2022/09/20 07:33:10;;;;;;;;;8.00;5.50;;;;;12.03;66.54;102330.06;5013198;28;49612;-78
2022/09/20 07:35:36;;;;;;;;;7.00;7.00;;;;;11.16;66.15;102189.75;5012555;28;49761;-76
2022/09/20 07:38:02;;;;;;;;;8.00;5.25;;;;;11.69;66.04;102243.63;5012640;28;49892;-78
2022/09/20 07:40:27;;;;;;;;;8.25;7.25;;;;;12.04;65.73;102286.22;5012625;28;50012;-74
2022/09/20 07:42:55;;;;;;;;;8.00;7.50;;;;;12.40;65.54;102339.41;4994808;28;49880;-74
2022/09/20 07:45:21;;;;;;;;;7.50;7.25;;;;;12.49;65.46;102339.78;4994636;28;52252;-76
2022/09/20 07:47:46;;;;;;;;;7.00;7.00;;;;;12.53;65.13;102328.50;5012817;28;49880;-80
2022/09/20 07:50:12;;;;;;;;;7.50;4.00;;;;;12.69;64.92;102342.25;5012643;28;49730;-75
2022/09/20 07:52:37;;;;;;;;;8.25;4.25;;;;;12.76;64.79;102339.91;5012715;28;49871;-74
2022/09/20 07:55:03;;;;;;;;;7.00;5.00;;;;;11.96;64.72;102201.69;5012015;28;49872;-76
2022/09/20 07:57:28;;;;;;;;;3.50;3.50;;;;;12.91;64.57;102336.91;5012354;28;49766;-75
2022/09/20 07:59:53;;;;;;;;;7.25;6.25;;;;;12.74;64.15;102315.25;5012435;28;49794;-79
2022/09/20 08:02:19;;;;;;;;;7.75;5.50;;;;;12.93;63.39;102329.06;5012650;28;50074;-78
2022/09/20 08:04:44;;;;;;;;;7.75;6.25;;;;;12.89;63.77;102309.63;5012171;28;50349;-75
2022/09/20 08:07:11;;;;;;;;;6.25;6.25;;;;;12.93;63.46;102307.97;4994517;28;49867;-74
2022/09/20 08:09:37;;;;;;;;;5.50;5.50;;;;;13.16;63.81;102350.16;5012021;28;49863;-77
2022/09/20 08:12:04;;;;;;;;;10.25;8.75;;;;;13.12;63.29;102332.44;5012464;28;49833;-76
2022/09/20 08:14:29;;;;;;;;;9.25;7.75;;;;;12.01;62.92;102122.94;4994205;28;50790;-78
2022/09/20 08:16:59;;;;;;;;;8.00;5.00;;;;;12.25;62.97;102165.94;5012093;28;49888;-75
2022/09/20 08:19:24;;;;;;;;;7.75;7.00;;;;;12.79;62.99;102242.50;5012282;28;50362;-78
2022/09/20 08:21:52;;;;;;;;;7.00;5.00;;;;;12.98;62.29;102262.50;5012185;28;49817;-77
2022/09/20 08:24:17;;;;;;;;;8.00;8.00;;;;;13.02;62.09;102264.38;5011715;28;49753;-74
2022/09/20 08:26:43;;;;;;;;;8.25;6.75;;;;;13.87;61.62;102356.09;5012225;28;50042;-74
2022/09/20 08:29:10;;;;;;;;;7.00;7.00;;;;;13.99;61.55;102360.88;5012294;28;49816;-74
2022/09/20 08:31:39;;;;;;;;;10.00;8.25;;;;;14.03;61.02;102353.13;5012126;28;49907;-74
2022/09/20 08:34:06;;;;;;;;;10.00;7.50;;;;;14.16;61.29;102356.16;5011536;28;49950;-75
2022/09/20 08:36:33;;;;;;;;;8.25;8.00;;;;;14.29;61.06;102361.88;5011851;28;50003;-76
2022/09/20 08:38:58;;;;;;;;;7.00;6.75;;;;;13.58;60.12;102243.44;5012008;28;49818;-78
2022/09/20 08:41:33;;;;;;;;;8.50;8.50;;;;;13.79;60.05;102272.22;5011414;28;49887;-78
2022/09/20 08:44:25;;;;;;;;;12.25;7.50;;;;;13.25;59.77;102128.09;5011628;28;50441;-76
2022/09/20 08:47:21;;;;;;;;;9.25;5.50;;;;;14.75;59.71;102363.28;5000862;28;49934;-78
2022/09/20 08:49:53;;;;;;;;;9.75;7.75;;;;;14.89;59.77;102368.97;5011734;28;49830;-76
2022/09/20 08:52:27;;;;;;;;;10.50;9.50;;;;;14.38;59.44;102249.38;5011643;28;49808;-78
2022/09/20 08:54:55;;;;;;;;;7.00;7.00;;;;;14.39;58.84;102259.13;5011050;28;50415;-78
2022/09/20 08:57:20;;;;;;;;;7.50;7.50;;;;;14.70;58.66;102293.53;5011696;28;49959;-76
2022/09/20 08:59:46;;;;;;;;;8.50;8.50;;;;;14.27;57.97;102214.72;5011714;28;49746;-78
2022/09/20 09:02:16;;;;;;;;;10.75;10.25;;;;;15.41;57.39;102373.94;5011847;28;49765;-75
2022/09/20 09:04:45;;;;;;;;;11.75;8.50;;;;;15.45;57.24;102381.13;5011248;28;49874;-79
2022/09/20 09:07:19;;;;;;;;;11.75;10.50;;;;;15.52;57.02;102378.63;5011377;28;49802;-75
2022/09/20 09:09:47;;;;;;;;;12.50;11.00;;;;;15.57;56.91;102375.25;5010935;28;49949;-77
2022/09/20 09:12:19;;;;;;;;;9.25;8.75;;;;;15.31;56.81;102312.81;5005304;28;49940;-75
2022/09/20 09:14:48;;;;;;;;;10.00;9.00;;;;;15.82;57.14;102382.06;5005624;28;50846;-75
2022/09/20 09:17:20;;;;;;;;;12.00;7.50;;;;;15.86;55.82;102365.44;5011311;28;49946;-78
2022/09/20 09:19:56;;;;;;;;;8.50;6.25;;;;;16.07;55.67;102380.94;5011499;28;49736;-79
2022/09/20 09:22:35;;;;;;;;;12.00;10.25;;;;;15.50;55.44;102287.69;5011513;28;49895;-76
2022/09/20 09:25:16;;;;;;;;;8.25;6.75;;;;;16.34;55.25;102377.16;5009386;28;51730;-78
2022/09/20 09:27:56;;;;;;;;;8.75;6.00;;;;;15.87;54.63;102271.88;5010997;28;49896;-78
2022/09/20 09:30:30;;;;;;;;;14.50;13.00;;;;;16.58;54.34;102370.63;5011034;28;49906;-75
2022/09/20 09:33:24;;;;;;;;;11.50;9.25;;;;;16.03;53.25;102250.19;5011350;28;49760;-79
2022/09/20 09:35:52;;;;;;;;;7.00;7.00;;;;;16.82;53.36;102365.00;4993026;28;49845;-77
2022/09/20 09:38:23;;;;;;;;;9.75;8.50;;;;;16.97;53.53;102361.72;5010963;28;49873;-75
2022/09/20 09:40:54;;;;;;;;;9.25;8.25;;;;;16.37;52.69;102234.09;5010659;28;50100;-77
2022/09/20 09:43:28;;;;;;;;;10.25;8.25;;;;;17.26;52.20;102364.94;5010697;28;49714;-75
2022/09/20 09:46:14;;;;;;;;;8.25;8.00;;;;;16.57;51.93;102228.31;5010654;28;49901;-81
2022/09/20 09:48:39;;;;;;;;;8.75;6.75;;;;;17.45;51.72;102367.06;5010929;28;49840;-75
2022/09/20 09:51:19;;;;;;;;;12.50;7.25;;;;;17.31;51.29;102331.44;5010704;28;49883;-74
2022/09/20 09:53:47;;;;;;;;;7.25;7.00;;;;;16.37;51.42;102166.06;5009955;28;49991;-75
2022/09/20 09:56:46;;;;;;;;;9.00;7.50;;;;;16.84;51.51;102258.91;4992897;28;50579;-75
2022/09/20 09:59:41;;;;;;;;;7.00;6.25;;;;;16.96;51.35;102251.19;5010967;28;49873;-78
2022/09/20 10:02:27;;;;;;;;;11.00;8.00;;;;;17.47;50.69;102348.56;4984915;28;49961;-75
2022/09/20 10:05:27;;;;;;;;;8.00;7.50;;;;;16.39;50.81;102153.75;5005469;28;50054;-78
2022/09/20 10:08:03;;;;;;;;;9.50;7.00;;;;;16.98;51.17;102268.00;5009729;28;49890;-78
2022/09/20 10:10:58;;;;;;;;;11.25;6.75;;;;;17.50;50.75;102368.94;5010237;28;49739;-77
2022/09/20 10:13:42;;;;;;;;;5.25;4.75;;;;;17.44;51.07;102359.09;5010756;28;49607;-76
2022/09/20 10:16:20;;;;;;;;;9.00;5.75;;;;;17.50;51.08;102358.31;5010867;28;50232;-76
2022/09/20 10:19:07;;;;;;;;;6.75;6.00;;;;;17.41;50.88;102351.97;5010413;28;51148;-76
2022/09/20 10:21:42;;;;;;;;;6.00;5.25;;;;;17.58;50.41;102341.66;5010344;28;49735;-74
2022/09/20 10:24:21;;;;;;;;;7.25;3.25;;;;;17.76;50.00;102356.13;5010275;28;49841;-74
2022/09/20 10:27:09;;;;;;;;;6.25;6.25;;;;;17.78;49.65;102355.31;5009495;28;49615;-76
2022/09/20 10:30:03;;;;;;;;;9.00;8.50;;;;;17.73;49.89;102325.09;5004984;28;50345;-73
2022/09/20 10:32:54;;;;;;;;;6.50;6.25;;;;;18.10;50.03;102344.28;5016730;28;49849;-74
2022/09/20 10:35:29;;;;;;;;;6.50;6.50;;;;;18.31;49.45;102342.81;5010216;28;49943;-73
2022/09/20 10:38:03;;;;;;;;;5.50;5.50;;;;;18.51;48.88;102345.75;5010688;28;50297;-74
2022/09/20 10:44:01;;;;;;;;;7.75;7.75;;;;;18.86;47.54;102334.69;5010868;28;49792;-74
2022/09/20 10:46:51;;;;;;;;;7.50;7.50;;;;;18.95;48.23;102341.91;5016232;28;49830;-75
2022/09/20 10:49:22;;;;;;;;;6.75;6.25;;;;;19.12;47.33;102332.34;5006595;28;50010;-73
2022/09/20 10:52:05;;;;;;;;;11.25;9.50;;;;;19.25;47.60;102328.91;5013141;28;49774;-77
2022/09/20 10:54:40;;;;;;;;;11.50;10.75;;;;;19.31;46.31;102334.31;5019498;28;49996;-75
2022/09/20 10:57:44;;;;;;;;;7.50;5.50;;;;;19.45;47.14;102327.31;5027538;28;49494;-74
2022/09/20 11:00:41;;;;;;;;;9.50;6.00;;;;;19.54;46.26;102329.19;5022186;28;49423;-74
2022/09/20 11:03:27;;;;;;;;;10.00;8.25;;;;;19.66;45.85;102341.75;5024653;28;50526;-75
2022/09/20 11:05:58;;;;;;;;;7.50;7.50;;;;;19.74;45.96;102329.38;5030612;28;49822;-75
2022/09/20 11:08:32;;;;;;;;;10.25;8.00;;;;;19.75;45.72;102309.84;5012825;28;49875;-73
2022/09/20 11:11:04;;;;;;;;;8.00;6.50;;;;;19.90;45.09;102325.06;5021728;28;49597;-75
2022/09/20 11:13:34;;;;;;;;;8.25;6.00;;;;;19.76;45.37;102303.63;5012162;28;49652;-75
2022/09/20 11:16:08;;;;;;;;;6.00;4.00;;;;;20.01;44.74;102328.69;5011515;28;50134;-76
2022/09/20 11:18:45;;;;;;;;;3.00;3.00;;;;;19.92;44.20;102305.53;5010998;28;50133;-75
2022/09/20 11:21:17;;;;;;;;;7.00;5.00;;;;;20.18;44.93;102335.03;5012984;28;50183;-77
2022/09/20 11:23:55;;;;;;;;;3.75;3.75;;;;;20.08;44.73;102284.31;5012612;28;49768;-73
2022/09/20 11:26:27;;;;;;;;;4.75;3.25;;;;;19.97;43.59;102266.44;5012911;28;49781;-74
2022/09/20 11:29:03;;;;;;;;;3.50;3.00;;;;;20.42;43.56;102320.91;5013089;28;49826;-73
2022/09/20 11:31:36;;;;;;;;;5.50;4.50;;;;;19.52;42.76;102156.94;5013218;28;49882;-74
2022/09/20 11:34:12;;;;;;;;;2.00;2.00;;;;;20.65;43.09;102317.50;5012805;28;50724;-74
2022/09/20 11:36:56;;;;;;;;;3.00;1.00;;;;;20.59;42.18;102321.03;5012749;28;49818;-72
2022/09/20 11:39:32;;;;;;;;;2.50;2.00;;;;;20.46;41.87;102308.50;5012529;28;49694;-74
2022/09/20 11:42:00;;;;;;;;;1.00;0.25;;;;;20.41;41.35;102316.47;5012902;28;49995;-74
2022/09/20 11:44:25;;;;;;;;;1.00;1.00;;;;;20.42;42.06;102317.38;5012843;28;50037;-74
2022/09/20 11:47:19;;;;;;;;;0.00;0.00;;;;;20.24;42.09;102321.72;5012643;28;49771;-74
2022/09/20 11:50:15;;;;;;;;;0.75;0.75;;;;;20.30;42.16;102324.44;5012854;28;50159;-73
2022/09/20 11:52:57;;;;;;;;;0.00;0.00;;;;;20.08;42.04;102300.31;5008917;28;49992;-73
2022/09/20 11:55:47;;;;;;;;;0.25;0.25;;;;;20.17;41.91;102321.66;5011910;28;49798;-73
2022/09/20 11:58:19;;;;;;;;;3.00;2.00;;;;;19.93;41.75;102286.00;5006602;28;49671;-74
2022/09/20 12:00:48;;;;;;;;;3.00;3.00;;;;;20.21;42.47;102319.03;5012656;28;49826;-73
2022/09/20 12:03:32;;;;;;;;;3.25;3.25;;;;;20.29;43.52;102327.09;5012671;28;50091;-74
2022/09/20 12:06:01;;;;;;;;;2.00;1.00;;;;;20.16;41.31;102290.56;5012317;28;50039;-74
2022/09/20 12:08:38;;;;;;;;;1.00;0.00;;;;;20.20;41.16;102311.03;5012258;28;49926;-73
2022/09/20 12:11:07;;;;;;;;;0.50;0.50;;;;;20.24;41.66;102327.03;5012010;28;49862;-74
2022/09/20 12:13:36;;;;;;;;;1.00;1.00;;;;;20.15;41.30;102328.78;5012490;28;49852;-74
2022/09/20 12:16:33;;;;;;;;;2.00;1.00;;;;;19.86;42.38;102294.81;5011248;28;49761;-74
2022/09/20 12:19:00;;;;;;;;;1.00;1.00;;;;;20.13;43.31;102314.53;5010812;28;49868;-73
2022/09/20 12:21:26;;;;;;;;;3.25;2.00;;;;;20.32;43.07;102320.88;5010927;28;49807;-72
2022/09/20 12:23:51;;;;;;;;;2.50;2.50;;;;;20.38;43.13;102313.81;5012352;28;49997;-73